createdAt,value
2017-09-25T00:00:29.174Z,15.97
2017-09-25T00:01:29.092Z,16.06
2017-09-25T00:02:29.018Z,16.06
2017-09-25T00:03:28.932Z,16.04
2017-09-25T00:04:28.852Z,16.06
2017-09-25T00:05:28.771Z,16.01
2017-09-25T00:06:28.692Z,15.96
2017-09-25T00:07:28.609Z,16.06
2017-09-25T00:08:28.531Z,16.01
2017-09-25T00:09:28.451Z,16.11
2017-09-25T00:10:28.380Z,16.09
2017-09-25T00:11:28.286Z,15.93
2017-09-25T00:12:28.209Z,16.03
2017-09-25T00:13:28.140Z,15.96
2017-09-25T00:14:28.043Z,16.00
2017-09-25T00:15:27.967Z,16.00
2017-09-25T00:16:27.886Z,16.00
2017-09-25T00:17:27.808Z,16.06
2017-09-25T00:18:27.727Z,16.12
2017-09-25T00:19:27.639Z,16.04
2017-09-25T00:20:27.569Z,15.85
2017-09-25T00:21:27.482Z,15.99
2017-09-25T00:22:27.400Z,15.97
2017-09-25T00:23:27.319Z,15.96
2017-09-25T00:24:27.239Z,16.03
2017-09-25T00:25:27.173Z,15.99
2017-09-25T00:26:27.079Z,15.93
2017-09-25T00:27:26.997Z,15.84
2017-09-25T00:28:26.913Z,15.60
2017-09-25T00:29:26.842Z,15.74
2017-09-25T00:30:26.760Z,15.92
2017-09-25T00:31:26.676Z,15.74
2017-09-25T00:32:26.600Z,15.56
2017-09-25T00:33:26.516Z,15.54
2017-09-25T00:34:26.432Z,15.38
2017-09-25T00:35:26.359Z,15.57
2017-09-25T00:36:26.272Z,15.70
2017-09-25T00:37:26.195Z,15.66
2017-09-25T00:38:26.105Z,15.56
2017-09-25T00:39:26.033Z,15.54
2017-09-25T00:40:25.956Z,15.54
2017-09-25T00:41:25.872Z,15.59
2017-09-25T00:42:25.786Z,15.60
2017-09-25T00:43:25.711Z,15.51
2017-09-25T00:44:25.624Z,15.38
2017-09-25T00:45:25.545Z,15.45
2017-09-25T00:46:25.460Z,15.35
2017-09-25T00:47:25.385Z,15.38
2017-09-25T00:48:25.305Z,15.42
2017-09-25T00:49:25.220Z,15.41
2017-09-25T00:50:25.147Z,15.54
2017-09-25T00:51:25.056Z,15.60
2017-09-25T00:52:24.986Z,15.57
2017-09-25T00:53:24.896Z,15.54
2017-09-25T00:54:24.817Z,15.35
2017-09-25T00:55:24.734Z,15.36
2017-09-25T00:56:24.651Z,15.35
2017-09-25T00:57:24.568Z,15.31
2017-09-25T00:58:24.487Z,15.46
2017-09-25T00:59:24.407Z,15.52
2017-09-25T01:00:24.327Z,15.48
2017-09-25T01:01:24.254Z,15.56
2017-09-25T01:02:24.163Z,15.57
2017-09-25T01:03:24.083Z,15.48
2017-09-25T01:04:24.002Z,15.45
2017-09-25T01:05:23.923Z,15.41
2017-09-25T01:06:23.838Z,15.33
2017-09-25T01:07:23.796Z,15.28
2017-09-25T01:08:23.686Z,15.39
2017-09-25T01:09:23.598Z,15.23
2017-09-25T01:10:23.523Z,15.38
2017-09-25T01:11:23.433Z,15.24
2017-09-25T01:12:23.364Z,15.06
2017-09-25T01:13:23.273Z,15.17
2017-09-25T01:14:23.190Z,15.08
2017-09-25T01:15:23.128Z,15.08
2017-09-25T01:16:23.027Z,15.13
2017-09-25T01:17:22.954Z,15.12
2017-09-25T01:18:22.868Z,15.13
2017-09-25T01:19:22.787Z,15.11
2017-09-25T01:20:22.726Z,15.08
2017-09-25T01:21:22.622Z,15.05
2017-09-25T01:22:22.552Z,14.93
2017-09-25T01:23:22.462Z,14.94
2017-09-25T01:24:22.388Z,15.17
2017-09-25T01:25:22.304Z,15.09
2017-09-25T01:26:22.217Z,15.06
2017-09-25T01:27:22.135Z,14.93
2017-09-25T01:28:22.054Z,15.03
2017-09-25T01:29:21.979Z,15.06
2017-09-25T01:30:21.891Z,15.05
2017-09-25T01:31:21.814Z,15.19
2017-09-25T01:32:21.726Z,15.17
2017-09-25T01:33:21.661Z,15.15
2017-09-25T01:34:21.564Z,15.21
2017-09-25T01:35:21.484Z,15.06
2017-09-25T01:36:21.425Z,15.09
2017-09-25T01:37:21.333Z,15.06
2017-09-25T01:38:21.238Z,15.05
2017-09-25T01:39:21.160Z,14.99
2017-09-25T01:40:21.101Z,15.06
2017-09-25T01:41:20.996Z,15.05
2017-09-25T01:42:20.918Z,14.94
2017-09-25T01:43:20.838Z,14.90
2017-09-25T01:44:20.755Z,14.86
2017-09-25T01:45:20.676Z,14.94
2017-09-25T01:46:20.595Z,14.99
2017-09-25T01:47:20.506Z,15.03
2017-09-25T01:48:20.432Z,15.13
2017-09-25T01:49:20.344Z,15.15
2017-09-25T01:50:20.287Z,15.13
2017-09-25T01:51:20.187Z,15.26
2017-09-25T01:52:20.101Z,15.30
2017-09-25T01:53:20.019Z,15.15
2017-09-25T01:54:19.937Z,15.17
2017-09-25T01:55:19.858Z,15.03
2017-09-25T01:56:19.776Z,14.90
2017-09-25T01:57:19.698Z,15.08
2017-09-25T01:58:19.611Z,15.08
2017-09-25T01:59:19.538Z,14.95
2017-09-25T02:00:19.450Z,15.05
2017-09-25T02:01:19.369Z,14.94
2017-09-25T02:02:19.290Z,14.80
2017-09-25T02:03:19.222Z,14.98
2017-09-25T02:04:19.123Z,15.02
2017-09-25T02:05:19.044Z,15.05
2017-09-25T02:06:18.970Z,14.99
2017-09-25T02:07:18.882Z,14.99
2017-09-25T02:08:18.800Z,14.69
2017-09-25T02:09:18.724Z,14.78
2017-09-25T02:10:18.641Z,15.06
2017-09-25T02:11:18.554Z,14.99
2017-09-25T02:12:18.476Z,15.01
2017-09-25T02:13:18.396Z,14.81
2017-09-25T02:14:18.312Z,14.88
2017-09-25T02:15:18.239Z,14.93
2017-09-25T02:16:18.149Z,14.88
2017-09-25T02:17:18.066Z,15.03
2017-09-25T02:18:18.005Z,15.05
2017-09-25T02:19:17.909Z,14.95
2017-09-25T02:20:17.822Z,14.94
2017-09-25T02:21:17.744Z,14.91
2017-09-25T02:22:17.657Z,15.03
2017-09-25T02:23:17.580Z,14.87
2017-09-25T02:24:17.496Z,14.81
2017-09-25T02:25:17.419Z,14.81
2017-09-25T02:26:17.338Z,14.88
2017-09-25T02:27:17.253Z,14.93
2017-09-25T02:28:17.170Z,14.93
2017-09-25T02:29:17.096Z,14.90
2017-09-25T02:30:17.010Z,14.93
2017-09-25T02:31:16.923Z,14.91
2017-09-25T02:32:16.847Z,14.87
2017-09-25T02:33:16.772Z,14.83
2017-09-25T02:34:16.682Z,14.83
2017-09-25T02:35:16.610Z,14.74
2017-09-25T02:36:16.529Z,14.78
2017-09-25T02:37:16.439Z,14.84
2017-09-25T02:38:16.357Z,14.71
2017-09-25T02:39:16.276Z,14.68
2017-09-25T02:40:16.195Z,14.74
2017-09-25T02:41:16.109Z,14.68
2017-09-25T02:42:16.028Z,14.71
2017-09-25T02:43:15.970Z,14.64
2017-09-25T02:44:15.865Z,14.69
2017-09-25T02:45:15.784Z,14.69
2017-09-25T02:46:15.707Z,14.62
2017-09-25T02:47:15.625Z,14.44
2017-09-25T02:48:15.540Z,14.42
2017-09-25T02:49:15.458Z,14.47
2017-09-25T02:50:15.375Z,14.37
2017-09-25T02:51:15.299Z,14.38
2017-09-25T02:52:15.214Z,14.42
2017-09-25T02:53:15.137Z,14.34
2017-09-25T02:54:15.053Z,14.42
2017-09-25T02:55:14.968Z,14.38
2017-09-25T02:56:14.892Z,14.49
2017-09-25T02:57:14.804Z,14.19
2017-09-25T02:58:14.730Z,14.25
2017-09-25T02:59:14.648Z,14.27
2017-09-25T03:00:14.562Z,14.38
2017-09-25T03:01:14.481Z,14.38
2017-09-25T03:02:14.406Z,14.37
2017-09-25T03:03:14.318Z,14.32
2017-09-25T03:04:14.235Z,14.19
2017-09-25T03:05:14.152Z,14.27
2017-09-25T03:06:14.077Z,14.37
2017-09-25T03:07:13.991Z,14.35
2017-09-25T03:08:13.915Z,14.27
2017-09-25T03:09:13.824Z,14.43
2017-09-25T03:10:13.746Z,14.42
2017-09-25T03:11:13.665Z,14.47
2017-09-25T03:12:13.608Z,14.54
2017-09-25T03:13:13.501Z,14.52
2017-09-25T03:14:13.416Z,14.49
2017-09-25T03:15:13.335Z,14.25
2017-09-25T03:16:13.255Z,14.17
2017-09-25T03:17:13.177Z,14.25
2017-09-25T03:18:13.090Z,14.35
2017-09-25T03:19:13.012Z,14.35
2017-09-25T03:20:12.927Z,14.38
2017-09-25T03:21:12.847Z,14.35
2017-09-25T03:22:12.761Z,14.28
2017-09-25T03:23:12.681Z,14.28
2017-09-25T03:24:12.604Z,14.17
2017-09-25T03:25:12.518Z,14.14
2017-09-25T03:26:12.432Z,14.07
2017-09-25T03:27:12.354Z,14.04
2017-09-25T03:28:12.274Z,14.01
2017-09-25T03:29:12.192Z,14.07
2017-09-25T03:30:12.109Z,13.89
2017-09-25T03:31:12.027Z,14.16
2017-09-25T03:32:11.962Z,14.13
2017-09-25T03:33:11.864Z,14.24
2017-09-25T03:34:11.781Z,14.02
2017-09-25T03:35:11.720Z,13.99
2017-09-25T03:36:11.620Z,13.92
2017-09-25T03:37:11.537Z,13.91
2017-09-25T03:38:11.453Z,13.94
2017-09-25T03:39:11.372Z,14.01
2017-09-25T03:40:11.291Z,14.07
2017-09-25T03:41:11.438Z,14.06
2017-09-25T03:42:11.124Z,14.14
2017-09-25T03:43:11.045Z,14.19
2017-09-25T03:44:10.959Z,14.25
2017-09-25T03:45:10.881Z,14.14
2017-09-25T03:46:10.802Z,14.16
2017-09-25T03:47:10.729Z,14.07
2017-09-25T03:48:10.640Z,14.07
2017-09-25T03:49:10.554Z,14.20
2017-09-25T03:50:10.472Z,14.25
2017-09-25T03:51:10.390Z,14.14
2017-09-25T03:52:10.313Z,14.19
2017-09-25T03:53:10.225Z,14.06
2017-09-25T03:54:10.162Z,14.25
2017-09-25T03:55:10.060Z,14.10
2017-09-25T03:56:09.978Z,14.24
2017-09-25T03:57:09.904Z,14.19
2017-09-25T03:58:09.815Z,14.20
2017-09-25T03:59:09.730Z,14.24
2017-09-25T04:00:09.650Z,14.17
2017-09-25T04:01:09.592Z,14.14
2017-09-25T04:02:09.491Z,14.17
2017-09-25T04:03:09.412Z,14.06
2017-09-25T04:04:09.325Z,14.02
2017-09-25T04:05:09.250Z,14.13
2017-09-25T04:06:09.180Z,14.10
2017-09-25T04:07:09.077Z,14.02
2017-09-25T04:08:08.991Z,13.95
2017-09-25T04:09:08.923Z,13.94
2017-09-25T04:10:08.834Z,14.13
2017-09-25T04:11:08.757Z,14.01
2017-09-25T04:12:08.672Z,13.92
2017-09-25T04:13:08.606Z,13.79
2017-09-25T04:14:08.535Z,14.04
2017-09-25T04:15:08.444Z,13.89
2017-09-25T04:16:08.338Z,13.89
2017-09-25T04:17:08.259Z,13.91
2017-09-25T04:18:08.173Z,14.01
2017-09-25T04:19:08.100Z,13.94
2017-09-25T04:20:08.016Z,13.83
2017-09-25T04:21:07.934Z,13.84
2017-09-25T04:22:07.848Z,13.91
2017-09-25T04:23:07.767Z,13.88
2017-09-25T04:24:07.689Z,13.92
2017-09-25T04:25:07.606Z,13.83
2017-09-25T04:26:07.526Z,13.67
2017-09-25T04:27:07.439Z,13.81
2017-09-25T04:28:07.353Z,13.89
2017-09-25T04:29:07.286Z,13.84
2017-09-25T04:30:07.190Z,13.67
2017-09-25T04:31:07.115Z,13.65
2017-09-25T04:32:07.038Z,13.73
2017-09-25T04:33:06.953Z,13.67
2017-09-25T04:34:06.866Z,13.83
2017-09-25T04:35:06.782Z,13.77
2017-09-25T04:36:06.711Z,13.91
2017-09-25T04:37:06.632Z,13.88
2017-09-25T04:38:06.541Z,13.92
2017-09-25T04:39:06.453Z,14.04
2017-09-25T04:40:06.371Z,13.91
2017-09-25T04:41:06.292Z,13.81
2017-09-25T04:42:06.207Z,13.89
2017-09-25T04:43:06.125Z,13.87
2017-09-25T04:44:06.047Z,13.79
2017-09-25T04:45:05.964Z,13.91
2017-09-25T04:46:05.883Z,13.76
2017-09-25T04:47:05.801Z,13.83
2017-09-25T04:48:05.726Z,13.96
2017-09-25T04:49:05.642Z,13.79
2017-09-25T04:50:05.552Z,13.70
2017-09-25T04:51:05.472Z,13.79
2017-09-25T04:52:05.389Z,13.70
2017-09-25T04:53:05.315Z,13.81
2017-09-25T04:54:05.225Z,13.80
2017-09-25T04:55:05.139Z,13.84
2017-09-25T04:56:05.060Z,13.83
2017-09-25T04:57:04.994Z,13.76
2017-09-25T04:58:04.892Z,13.63
2017-09-25T04:59:04.814Z,13.65
2017-09-25T05:00:04.735Z,13.62
2017-09-25T05:01:04.652Z,13.65
2017-09-25T05:02:04.570Z,13.65
2017-09-25T05:03:04.481Z,13.63
2017-09-25T05:04:04.401Z,13.65
2017-09-25T05:05:04.332Z,13.51
2017-09-25T05:06:04.242Z,13.56
2017-09-25T05:07:04.160Z,13.55
2017-09-25T05:08:04.079Z,13.52
2017-09-25T05:09:03.998Z,13.65
2017-09-25T05:10:03.909Z,13.77
2017-09-25T05:11:03.828Z,13.55
2017-09-25T05:12:03.746Z,13.52
2017-09-25T05:13:03.664Z,13.69
2017-09-25T05:14:03.585Z,13.77
2017-09-25T05:15:03.502Z,13.52
2017-09-25T05:16:03.413Z,13.52
2017-09-25T05:17:03.335Z,13.43
2017-09-25T05:18:03.248Z,13.58
2017-09-25T05:19:03.199Z,13.47
2017-09-25T05:20:03.102Z,13.30
2017-09-25T05:21:03.007Z,13.49
2017-09-25T05:22:02.925Z,13.58
2017-09-25T05:23:02.869Z,13.38
2017-09-25T05:24:02.760Z,13.25
2017-09-25T05:25:02.675Z,13.36
2017-09-25T05:26:02.587Z,13.43
2017-09-25T05:27:02.513Z,13.56
2017-09-25T05:28:02.429Z,13.55
2017-09-25T05:29:02.347Z,13.52
2017-09-25T05:30:02.271Z,13.54
2017-09-25T05:31:02.182Z,13.56
2017-09-25T05:32:02.100Z,13.59
2017-09-25T05:33:02.017Z,13.70
2017-09-25T05:34:01.934Z,13.70
2017-09-25T05:35:01.854Z,13.87
2017-09-25T05:36:01.769Z,13.51
2017-09-25T05:37:01.687Z,13.62
2017-09-25T05:38:01.609Z,13.51
2017-09-25T05:39:01.524Z,13.49
2017-09-25T05:40:01.441Z,13.70
2017-09-25T05:41:01.361Z,13.63
2017-09-25T05:42:01.278Z,13.59
2017-09-25T05:43:01.196Z,13.62
2017-09-25T05:44:01.111Z,13.49
2017-09-25T05:45:01.032Z,13.38
2017-09-25T05:46:00.946Z,13.40
2017-09-25T05:47:00.864Z,13.51
2017-09-25T05:48:00.781Z,13.27
2017-09-25T05:49:00.707Z,13.27
2017-09-25T05:50:00.618Z,13.62
2017-09-25T05:51:00.535Z,13.81
2017-09-25T05:52:00.456Z,13.89
2017-09-25T05:53:00.370Z,14.35
2017-09-25T05:54:00.288Z,14.87
2017-09-25T05:55:00.204Z,14.69
2017-09-25T05:56:00.124Z,14.56
2017-09-25T05:57:00.045Z,14.34
2017-09-25T05:57:59.965Z,14.07
2017-09-25T05:58:59.877Z,13.83
2017-09-25T05:59:59.802Z,13.81
2017-09-25T06:00:59.714Z,13.54
2017-09-25T06:01:59.656Z,13.56
2017-09-25T06:02:59.550Z,13.54
2017-09-25T06:03:59.471Z,13.58
2017-09-25T06:04:59.387Z,13.67
2017-09-25T06:05:59.301Z,13.62
2017-09-25T06:06:59.218Z,13.62
2017-09-25T06:07:59.136Z,13.67
2017-09-25T06:08:59.056Z,13.80
2017-09-25T06:09:58.972Z,13.65
2017-09-25T06:10:58.894Z,13.88
2017-09-25T06:11:58.810Z,13.91
2017-09-25T06:12:58.756Z,14.07
2017-09-25T06:13:58.644Z,14.21
2017-09-25T06:14:58.563Z,14.27
2017-09-25T06:15:58.500Z,14.21
2017-09-25T06:16:58.400Z,14.14
2017-09-25T06:17:58.312Z,14.12
2017-09-25T06:18:58.241Z,13.98
2017-09-25T06:19:58.152Z,13.92
2017-09-25T06:20:58.129Z,13.88
2017-09-25T06:21:57.987Z,14.01
2017-09-25T06:22:57.906Z,13.89
2017-09-25T06:23:57.820Z,13.89
2017-09-25T06:24:57.741Z,13.84
2017-09-25T06:25:57.659Z,13.88
2017-09-25T06:26:57.576Z,13.89
2017-09-25T06:27:57.496Z,14.02
2017-09-25T06:28:57.417Z,13.91
2017-09-25T06:29:57.329Z,13.77
2017-09-25T06:30:57.250Z,13.74
2017-09-25T06:31:57.177Z,13.91
2017-09-25T06:32:57.082Z,13.91
2017-09-25T06:33:57.022Z,13.95
2017-09-25T06:34:56.923Z,14.14
2017-09-25T06:35:56.841Z,14.14
2017-09-25T06:36:56.764Z,14.28
2017-09-25T06:37:56.674Z,14.19
2017-09-25T06:38:56.594Z,14.38
2017-09-25T06:39:56.583Z,14.50
2017-09-25T06:40:56.431Z,14.50
2017-09-25T06:41:56.352Z,14.35
2017-09-25T06:42:56.269Z,14.27
2017-09-25T06:43:56.220Z,14.34
2017-09-25T06:44:56.102Z,14.29
2017-09-25T06:45:56.018Z,14.34
2017-09-25T06:46:55.939Z,14.28
2017-09-25T06:47:55.856Z,14.31
2017-09-25T06:48:55.780Z,14.16
2017-09-25T06:49:55.702Z,14.27
2017-09-25T06:50:55.613Z,14.44
2017-09-25T06:51:55.543Z,14.37
2017-09-25T06:52:55.451Z,14.32
2017-09-25T06:53:55.367Z,14.25
2017-09-25T06:54:55.286Z,14.39
2017-09-25T06:55:55.216Z,14.44
2017-09-25T06:56:55.123Z,14.53
2017-09-25T06:57:55.043Z,14.52
2017-09-25T06:58:54.958Z,14.50
2017-09-25T06:59:54.878Z,14.34
2017-09-25T07:00:54.799Z,14.42
2017-09-25T07:01:54.716Z,14.35
2017-09-25T07:02:54.638Z,14.50
2017-09-25T07:03:54.557Z,14.56
2017-09-25T07:04:54.489Z,14.60
2017-09-25T07:05:54.393Z,14.65
2017-09-25T07:06:54.315Z,14.64
2017-09-25T07:07:54.230Z,14.69
2017-09-25T07:08:54.154Z,14.60
2017-09-25T07:09:54.060Z,14.60
2017-09-25T07:10:53.985Z,14.72
2017-09-25T07:11:53.920Z,14.65
2017-09-25T07:12:53.827Z,14.69
2017-09-25T07:13:53.743Z,14.64
2017-09-25T07:14:53.670Z,14.56
2017-09-25T07:15:53.577Z,14.61
2017-09-25T07:16:53.496Z,14.56
2017-09-25T07:17:53.413Z,14.67
2017-09-25T07:18:53.337Z,14.74
2017-09-25T07:19:53.257Z,14.71
2017-09-25T07:20:53.170Z,14.83
2017-09-25T07:21:53.090Z,14.72
2017-09-25T07:22:53.014Z,14.75
2017-09-25T07:23:52.929Z,14.86
2017-09-25T07:24:52.847Z,14.99
2017-09-25T07:25:52.763Z,14.95
2017-09-25T07:26:52.686Z,15.01
2017-09-25T07:27:52.603Z,15.09
2017-09-25T07:28:52.524Z,15.12
2017-09-25T07:29:52.457Z,15.06
2017-09-25T07:30:52.371Z,15.08
2017-09-25T07:31:52.289Z,15.05
2017-09-25T07:32:52.205Z,15.15
2017-09-25T07:33:52.119Z,15.24
2017-09-25T07:34:52.038Z,15.35
2017-09-25T07:35:51.961Z,15.35
2017-09-25T07:36:51.893Z,15.35
2017-09-25T07:37:51.802Z,15.30
2017-09-25T07:38:51.725Z,15.33
2017-09-25T07:39:51.640Z,15.46
2017-09-25T07:40:51.555Z,15.48
2017-09-25T07:41:51.470Z,15.36
2017-09-25T07:42:51.397Z,15.38
2017-09-25T07:43:51.314Z,15.48
2017-09-25T07:44:51.236Z,15.52
2017-09-25T07:45:51.152Z,15.57
2017-09-25T07:46:51.075Z,15.57
2017-09-25T07:47:50.994Z,15.70
2017-09-25T07:48:50.910Z,15.78
2017-09-25T07:49:50.832Z,15.81
2017-09-25T07:50:50.757Z,15.89
2017-09-25T07:51:50.672Z,15.86
2017-09-25T07:52:50.593Z,15.99
2017-09-25T07:53:50.515Z,16.03
2017-09-25T07:54:50.436Z,16.18
2017-09-25T07:55:50.354Z,16.34
2017-09-25T07:56:50.275Z,16.40
2017-09-25T07:57:50.196Z,16.53
2017-09-25T07:58:50.119Z,16.63
2017-09-25T07:59:50.044Z,16.74
2017-09-25T08:00:49.963Z,16.78
2017-09-25T08:01:49.926Z,16.81
2017-09-25T08:02:49.807Z,16.85
2017-09-25T08:03:49.732Z,17.11
2017-09-25T08:04:49.653Z,17.23
2017-09-25T08:05:49.574Z,17.43
2017-09-25T08:06:49.500Z,17.67
2017-09-25T08:07:49.420Z,17.88
2017-09-25T08:08:49.349Z,18.00
2017-09-25T08:09:49.268Z,18.43
2017-09-25T08:10:49.194Z,18.64
2017-09-25T08:11:49.115Z,18.83
2017-09-25T08:12:49.044Z,19.18
2017-09-25T08:13:48.963Z,19.43
2017-09-25T08:14:48.889Z,19.70
2017-09-25T08:15:48.811Z,19.88
2017-09-25T08:16:48.738Z,20.20
2017-09-25T08:17:48.667Z,20.20
2017-09-25T08:18:48.588Z,20.43
2017-09-25T08:19:48.523Z,20.59
2017-09-25T08:20:48.439Z,20.65
2017-09-25T08:21:48.368Z,20.76
2017-09-25T08:22:48.282Z,21.02
2017-09-25T08:23:48.220Z,21.01
2017-09-25T08:24:48.133Z,21.11
2017-09-25T08:25:48.056Z,21.34
2017-09-25T08:26:47.985Z,21.36
2017-09-25T08:27:47.911Z,21.50
2017-09-25T08:28:47.839Z,21.57
2017-09-25T08:29:47.761Z,21.90
2017-09-25T08:30:47.688Z,22.01
2017-09-25T08:31:47.607Z,22.25
2017-09-25T08:32:47.534Z,22.14
2017-09-25T08:33:47.460Z,22.27
2017-09-25T08:34:47.394Z,22.19
2017-09-25T08:35:47.321Z,22.34
2017-09-25T08:36:47.243Z,22.52
2017-09-25T08:37:47.170Z,22.57
2017-09-25T08:38:47.092Z,22.59
2017-09-25T08:39:47.025Z,22.52
2017-09-25T08:40:46.947Z,22.60
2017-09-25T08:41:46.874Z,22.74
2017-09-25T08:42:46.810Z,22.89
2017-09-25T08:43:46.730Z,23.05
2017-09-25T08:44:46.659Z,23.15
2017-09-25T08:45:46.577Z,23.15
2017-09-25T08:46:46.504Z,23.20
2017-09-25T08:47:46.432Z,23.40
2017-09-25T08:48:46.357Z,23.46
2017-09-25T08:49:46.283Z,23.65
2017-09-25T08:50:46.213Z,23.58
2017-09-25T08:51:46.137Z,23.47
2017-09-25T08:52:46.067Z,23.60
2017-09-25T08:53:45.990Z,23.68
2017-09-25T08:54:45.920Z,23.82
2017-09-25T08:55:45.853Z,23.62
2017-09-25T08:56:45.779Z,23.75
2017-09-25T08:57:45.711Z,23.75
2017-09-25T08:58:45.636Z,23.80
2017-09-25T08:59:45.564Z,23.83
2017-09-25T09:00:45.491Z,23.57
2017-09-25T09:01:45.419Z,23.83
2017-09-25T09:02:45.384Z,23.94
2017-09-25T09:03:45.310Z,24.00
2017-09-25T09:04:45.212Z,23.79
2017-09-25T09:05:45.141Z,23.76
2017-09-25T09:06:45.059Z,23.89
2017-09-25T09:07:44.995Z,23.82
2017-09-25T09:08:44.928Z,24.04
2017-09-25T09:09:44.851Z,23.87
2017-09-25T09:10:44.783Z,24.00
2017-09-25T09:11:44.706Z,24.16
2017-09-25T09:12:44.644Z,24.23
2017-09-25T09:13:44.562Z,24.27
2017-09-25T09:14:44.499Z,24.17
2017-09-25T09:15:44.417Z,24.16
2017-09-25T09:16:44.349Z,24.16
2017-09-25T09:17:44.278Z,24.23
2017-09-25T09:18:44.205Z,24.45
2017-09-25T09:19:44.130Z,24.71
2017-09-25T09:20:44.070Z,24.79
2017-09-25T09:21:43.993Z,24.68
2017-09-25T09:22:43.934Z,24.59
2017-09-25T09:23:43.849Z,24.57
2017-09-25T09:24:43.779Z,24.82
2017-09-25T09:25:43.713Z,24.80
2017-09-25T09:26:43.644Z,24.83
2017-09-25T09:27:43.572Z,24.82
2017-09-25T09:28:43.502Z,24.88
2017-09-25T09:29:43.432Z,24.69
2017-09-25T09:30:43.370Z,24.54
2017-09-25T09:31:43.297Z,24.82
2017-09-25T09:32:43.260Z,24.90
2017-09-25T09:33:43.152Z,25.16
2017-09-25T09:34:43.088Z,25.00
2017-09-25T09:35:43.006Z,24.85
2017-09-25T09:36:42.942Z,24.97
2017-09-25T09:37:42.873Z,25.12
2017-09-25T09:38:42.809Z,25.13
2017-09-25T09:39:42.734Z,25.19
2017-09-25T09:40:42.680Z,25.27
2017-09-25T09:41:42.604Z,25.38
2017-09-25T09:42:42.534Z,25.30
2017-09-25T09:43:42.464Z,25.28
2017-09-25T09:44:42.426Z,25.32
2017-09-25T09:45:42.325Z,25.53
2017-09-25T09:46:42.257Z,25.44
2017-09-25T09:47:42.191Z,25.54
2017-09-25T09:48:42.137Z,25.64
2017-09-25T09:49:42.068Z,25.50
2017-09-25T09:50:41.989Z,25.71
2017-09-25T09:51:41.954Z,25.98
2017-09-25T09:52:41.853Z,26.01
2017-09-25T09:53:41.792Z,25.84
2017-09-25T09:54:41.721Z,26.05
2017-09-25T09:55:41.654Z,26.11
2017-09-25T09:56:41.602Z,26.21
2017-09-25T09:57:41.519Z,25.98
2017-09-25T09:58:41.463Z,26.05
2017-09-25T09:59:41.399Z,25.86
2017-09-25T10:00:41.318Z,26.04
2017-09-25T10:01:41.252Z,26.35
2017-09-25T10:02:41.182Z,26.44
2017-09-25T10:03:41.124Z,26.36
2017-09-25T10:04:41.053Z,26.21
2017-09-25T10:05:40.989Z,26.52
2017-09-25T10:06:40.923Z,26.32
2017-09-25T10:07:40.867Z,26.18
2017-09-25T10:08:40.782Z,25.62
2017-09-25T10:09:40.719Z,26.04
2017-09-25T10:10:40.655Z,26.29
2017-09-25T10:11:40.585Z,26.37
2017-09-25T10:12:40.517Z,26.52
2017-09-25T10:13:40.458Z,26.77
2017-09-25T10:14:40.382Z,26.55
2017-09-25T10:15:40.319Z,26.40
2017-09-25T10:16:40.250Z,26.57
2017-09-25T10:17:40.181Z,26.73
2017-09-25T10:18:40.117Z,26.83
2017-09-25T10:19:40.052Z,26.98
2017-09-25T10:20:39.991Z,26.92
2017-09-25T10:21:39.920Z,26.55
2017-09-25T10:22:39.852Z,26.77
2017-09-25T10:23:39.786Z,26.91
2017-09-25T10:24:39.717Z,26.92
2017-09-25T10:25:39.657Z,27.02
2017-09-25T10:26:39.607Z,27.14
2017-09-25T10:27:39.526Z,26.92
2017-09-25T10:28:39.458Z,27.21
2017-09-25T10:29:39.396Z,27.32
2017-09-25T10:30:39.325Z,27.33
2017-09-25T10:31:39.260Z,27.35
2017-09-25T10:32:39.239Z,27.28
2017-09-25T10:33:39.134Z,27.20
2017-09-25T10:34:39.066Z,27.20
2017-09-25T10:35:39.011Z,27.10
2017-09-25T10:36:38.938Z,27.06
2017-09-25T10:37:38.868Z,27.33
2017-09-25T10:38:38.801Z,27.23
2017-09-25T10:39:38.736Z,27.33
2017-09-25T10:40:38.670Z,27.14
2017-09-25T10:41:38.611Z,27.38
2017-09-25T10:42:38.543Z,27.38
2017-09-25T10:43:38.478Z,27.53
2017-09-25T10:44:38.412Z,27.85
2017-09-25T10:45:38.337Z,27.91
2017-09-25T10:46:38.286Z,27.77
2017-09-25T10:47:38.210Z,27.61
2017-09-25T10:48:38.146Z,27.43
2017-09-25T10:49:38.084Z,27.41
2017-09-25T10:50:38.012Z,27.61
2017-09-25T10:51:37.948Z,27.59
2017-09-25T10:52:37.887Z,27.80
2017-09-25T10:53:37.824Z,27.82
2017-09-25T10:54:37.747Z,27.69
2017-09-25T10:55:37.681Z,27.64
2017-09-25T10:56:37.610Z,27.54
2017-09-25T10:57:37.546Z,27.42
2017-09-25T10:58:37.477Z,27.38
2017-09-25T10:59:37.408Z,27.69
2017-09-25T11:00:37.349Z,27.57
2017-09-25T11:01:37.283Z,27.73
2017-09-25T11:02:37.234Z,27.61
2017-09-25T11:03:37.148Z,27.43
2017-09-25T11:04:37.083Z,27.32
2017-09-25T11:05:37.026Z,27.31
2017-09-25T11:06:37.863Z,27.36
2017-09-25T11:07:36.891Z,27.04
2017-09-25T11:08:36.818Z,27.31
2017-09-25T11:09:36.747Z,27.41
2017-09-25T11:10:36.699Z,27.51
2017-09-25T11:11:36.619Z,27.70
2017-09-25T11:12:36.607Z,27.42
2017-09-25T11:13:36.485Z,27.50
2017-09-25T11:14:36.411Z,27.38
2017-09-25T11:15:36.336Z,27.66
2017-09-25T11:16:36.284Z,27.69
2017-09-25T11:17:36.204Z,27.67
2017-09-25T11:18:36.144Z,27.71
2017-09-25T11:19:36.078Z,27.66
2017-09-25T11:20:36.008Z,27.66
2017-09-25T11:21:35.943Z,27.51
2017-09-25T11:22:35.879Z,27.41
2017-09-25T11:23:35.812Z,27.39
2017-09-25T11:24:35.743Z,27.36
2017-09-25T11:25:35.679Z,27.13
2017-09-25T11:26:35.612Z,27.23
2017-09-25T11:27:35.549Z,27.57
2017-09-25T11:28:35.479Z,27.46
2017-09-25T11:29:35.423Z,27.41
2017-09-25T11:30:35.356Z,27.38
2017-09-25T11:31:35.283Z,27.48
2017-09-25T11:32:35.219Z,27.51
2017-09-25T11:33:35.151Z,27.53
2017-09-25T11:34:35.109Z,27.71
2017-09-25T11:35:35.023Z,27.67
2017-09-25T11:36:34.958Z,27.84
2017-09-25T11:37:34.896Z,28.03
2017-09-25T11:38:34.823Z,27.86
2017-09-25T11:39:34.750Z,27.95
2017-09-25T11:40:34.710Z,27.82
2017-09-25T11:41:34.620Z,27.66
2017-09-25T11:42:34.559Z,27.79
2017-09-25T11:43:34.489Z,27.88
2017-09-25T11:44:34.417Z,28.07
2017-09-25T11:45:34.349Z,27.89
2017-09-25T11:46:34.274Z,27.92
2017-09-25T11:47:34.204Z,27.94
2017-09-25T11:48:34.134Z,26.81
2017-09-25T11:49:34.060Z,27.19
2017-09-25T11:50:33.997Z,27.61
2017-09-25T11:51:33.925Z,27.79
2017-09-25T11:52:33.855Z,27.91
2017-09-25T11:53:33.782Z,27.76
2017-09-25T11:54:33.710Z,27.57
2017-09-25T11:55:33.646Z,27.47
2017-09-25T11:56:33.568Z,27.54
2017-09-25T11:57:33.512Z,27.54
2017-09-25T11:58:33.433Z,27.38
2017-09-25T11:59:33.360Z,26.95
2017-09-25T12:00:33.286Z,26.98
2017-09-25T12:01:33.216Z,27.24
2017-09-25T12:02:33.169Z,26.91
2017-09-25T12:03:33.088Z,27.02
2017-09-25T12:04:33.007Z,27.01
2017-09-25T12:05:32.926Z,26.89
2017-09-25T12:06:32.867Z,26.87
2017-09-25T12:07:32.784Z,26.83
2017-09-25T12:08:32.709Z,26.95
2017-09-25T12:09:32.641Z,27.02
2017-09-25T12:10:32.567Z,27.17
2017-09-25T12:11:32.500Z,27.24
2017-09-25T12:12:32.441Z,27.32
2017-09-25T12:13:32.350Z,26.94
2017-09-25T12:14:32.283Z,27.04
2017-09-25T12:15:32.220Z,26.99
2017-09-25T12:16:32.148Z,27.01
2017-09-25T12:17:32.064Z,26.94
2017-09-25T12:18:31.992Z,26.94
2017-09-25T12:19:31.918Z,26.83
2017-09-25T12:20:31.846Z,26.94
2017-09-25T12:21:31.775Z,26.92
2017-09-25T12:22:31.714Z,26.92
2017-09-25T12:23:31.645Z,26.94
2017-09-25T12:24:31.559Z,26.89
2017-09-25T12:25:31.490Z,26.91
2017-09-25T12:26:31.431Z,26.99
2017-09-25T12:27:31.336Z,26.87
2017-09-25T12:28:31.267Z,26.83
2017-09-25T12:29:31.199Z,26.49
2017-09-25T12:30:31.123Z,26.72
2017-09-25T12:31:31.050Z,26.55
2017-09-25T12:32:30.975Z,26.55
2017-09-25T12:33:30.896Z,26.65
2017-09-25T12:34:30.839Z,26.55
2017-09-25T12:35:30.756Z,26.40
2017-09-25T12:36:30.690Z,26.27
2017-09-25T12:37:30.612Z,26.36
2017-09-25T12:38:30.537Z,26.39
2017-09-25T12:39:30.468Z,26.46
2017-09-25T12:40:30.419Z,26.57
2017-09-25T12:41:30.317Z,26.43
2017-09-25T12:42:30.240Z,26.37
2017-09-25T12:43:30.187Z,26.01
2017-09-25T12:44:30.107Z,25.74
2017-09-25T12:45:30.026Z,26.01
2017-09-25T12:46:29.952Z,26.05
2017-09-25T12:47:29.881Z,26.04
2017-09-25T12:48:29.806Z,25.86
2017-09-25T12:49:29.737Z,25.56
2017-09-25T12:50:29.663Z,25.64
2017-09-25T12:51:29.596Z,25.49